sensor_id;sensor_type;location;lat;lon;timestamp;P1;durP1;ratioP1;P2;durP2;ratioP2
11008;SDS011;5557;51.670;7.788;2023-12-07T00:00:33;32.50;;;28.67;;
11008;SDS011;5557;51.670;7.788;2023-12-07T00:03:00;38.07;;;29.73;;
11008;SDS011;5557;51.670;7.788;2023-12-07T00:05:27;32.70;;;29.20;;
11008;SDS011;5557;51.670;7.788;2023-12-07T00:07:54;33.80;;;29.00;;
11008;SDS011;5557;51.670;7.788;2023-12-07T00:10:21;35.93;;;30.00;;
11008;SDS011;5557;51.670;7.788;2023-12-07T00:12:48;40.17;;;30.30;;
11008;SDS011;5557;51.670;7.788;2023-12-07T00:15:15;31.40;;;28.00;;
11008;SDS011;5557;51.670;7.788;2023-12-07T00:17:42;32.77;;;28.70;;
11008;SDS011;5557;51.670;7.788;2023-12-07T00:20:10;32.23;;;28.73;;
11008;SDS011;5557;51.670;7.788;2023-12-07T00:22:37;39.43;;;30.30;;
11008;SDS011;5557;51.670;7.788;2023-12-07T00:25:05;36.53;;;29.60;;
11008;SDS011;5557;51.670;7.788;2023-12-07T00:27:32;34.03;;;29.57;;
11008;SDS011;5557;51.670;7.788;2023-12-07T00:29:59;32.23;;;28.73;;
11008;SDS011;5557;51.670;7.788;2023-12-07T00:32:26;37.03;;;30.47;;
11008;SDS011;5557;51.670;7.788;2023-12-07T00:34:54;32.37;;;28.97;;
11008;SDS011;5557;51.670;7.788;2023-12-07T00:37:21;34.87;;;28.73;;
11008;SDS011;5557;51.670;7.788;2023-12-07T00:39:48;38.90;;;30.80;;
11008;SDS011;5557;51.670;7.788;2023-12-07T00:42:15;32.83;;;29.00;;
11008;SDS011;5557;51.670;7.788;2023-12-07T00:44:42;33.47;;;29.90;;
11008;SDS011;5557;51.670;7.788;2023-12-07T00:47:10;35.20;;;29.70;;
11008;SDS011;5557;51.670;7.788;2023-12-07T00:49:37;38.10;;;30.90;;
11008;SDS011;5557;51.670;7.788;2023-12-07T00:52:07;33.73;;;30.13;;
11008;SDS011;5557;51.670;7.788;2023-12-07T00:54:34;40.13;;;31.93;;
11008;SDS011;5557;51.670;7.788;2023-12-07T00:57:01;42.00;;;33.57;;
11008;SDS011;5557;51.670;7.788;2023-12-07T00:59:28;40.93;;;34.00;;
11008;SDS011;5557;51.670;7.788;2023-12-07T01:02:00;36.80;;;31.10;;
11008;SDS011;5557;51.670;7.788;2023-12-07T01:04:28;35.43;;;31.57;;
11008;SDS011;5557;51.670;7.788;2023-12-07T01:06:56;38.67;;;33.60;;
11008;SDS011;5557;51.670;7.788;2023-12-07T01:09:23;43.53;;;33.13;;
11008;SDS011;5557;51.670;7.788;2023-12-07T01:11:50;37.83;;;32.63;;
11008;SDS011;5557;51.670;7.788;2023-12-07T01:14:18;39.50;;;32.73;;
11008;SDS011;5557;51.670;7.788;2023-12-07T01:16:45;40.10;;;33.60;;
11008;SDS011;5557;51.670;7.788;2023-12-07T01:19:12;44.00;;;35.20;;
11008;SDS011;5557;51.670;7.788;2023-12-07T01:21:43;43.97;;;33.00;;
11008;SDS011;5557;51.670;7.788;2023-12-07T01:24:10;43.10;;;33.70;;
11008;SDS011;5557;51.670;7.788;2023-12-07T01:26:42;45.60;;;36.60;;
11008;SDS011;5557;51.670;7.788;2023-12-07T01:29:09;40.40;;;34.30;;
11008;SDS011;5557;51.670;7.788;2023-12-07T01:31:40;50.77;;;35.20;;
11008;SDS011;5557;51.670;7.788;2023-12-07T01:34:08;47.07;;;38.37;;
11008;SDS011;5557;51.670;7.788;2023-12-07T01:36:35;49.40;;;37.97;;
11008;SDS011;5557;51.670;7.788;2023-12-07T01:39:02;50.43;;;38.73;;
11008;SDS011;5557;51.670;7.788;2023-12-07T01:41:29;51.30;;;38.00;;
11008;SDS011;5557;51.670;7.788;2023-12-07T01:43:57;46.60;;;37.97;;
11008;SDS011;5557;51.670;7.788;2023-12-07T01:46:24;48.63;;;38.00;;
11008;SDS011;5557;51.670;7.788;2023-12-07T01:48:51;47.87;;;38.90;;
11008;SDS011;5557;51.670;7.788;2023-12-07T01:51:19;48.40;;;37.70;;
11008;SDS011;5557;51.670;7.788;2023-12-07T01:53:47;50.63;;;38.87;;
11008;SDS011;5557;51.670;7.788;2023-12-07T01:56:15;49.23;;;38.43;;
11008;SDS011;5557;51.670;7.788;2023-12-07T01:58:43;52.97;;;40.00;;
11008;SDS011;5557;51.670;7.788;2023-12-07T02:01:10;54.13;;;40.27;;
11008;SDS011;5557;51.670;7.788;2023-12-07T02:03:39;56.60;;;41.17;;
11008;SDS011;5557;51.670;7.788;2023-12-07T02:06:07;61.87;;;43.00;;
11008;SDS011;5557;51.670;7.788;2023-12-07T02:08:35;61.07;;;43.67;;
11008;SDS011;5557;51.670;7.788;2023-12-07T02:11:08;65.83;;;43.13;;
11008;SDS011;5557;51.670;7.788;2023-12-07T02:13:39;68.00;;;43.53;;
11008;SDS011;5557;51.670;7.788;2023-12-07T02:16:08;63.10;;;43.70;;
11008;SDS011;5557;51.670;7.788;2023-12-07T02:19:03;68.90;;;44.87;;
11008;SDS011;5557;51.670;7.788;2023-12-07T02:21:59;72.50;;;44.20;;
11008;SDS011;5557;51.670;7.788;2023-12-07T02:24:34;68.00;;;45.00;;
11008;SDS011;5557;51.670;7.788;2023-12-07T02:27:04;76.83;;;45.97;;
11008;SDS011;5557;51.670;7.788;2023-12-07T02:29:31;71.47;;;45.90;;
11008;SDS011;5557;51.670;7.788;2023-12-07T02:31:58;84.83;;;46.90;;
11008;SDS011;5557;51.670;7.788;2023-12-07T02:34:34;77.23;;;47.20;;
11008;SDS011;5557;51.670;7.788;2023-12-07T02:37:01;85.00;;;48.03;;
11008;SDS011;5557;51.670;7.788;2023-12-07T02:39:30;82.70;;;45.60;;
11008;SDS011;5557;51.670;7.788;2023-12-07T02:41:57;88.80;;;47.30;;
11008;SDS011;5557;51.670;7.788;2023-12-07T02:44:24;86.47;;;48.47;;
11008;SDS011;5557;51.670;7.788;2023-12-07T02:46:52;84.93;;;50.30;;
11008;SDS011;5557;51.670;7.788;2023-12-07T02:49:19;77.43;;;46.87;;
11008;SDS011;5557;51.670;7.788;2023-12-07T02:51:46;84.73;;;46.83;;
11008;SDS011;5557;51.670;7.788;2023-12-07T02:54:13;78.97;;;46.73;;
11008;SDS011;5557;51.670;7.788;2023-12-07T02:56:40;83.50;;;45.37;;
11008;SDS011;5557;51.670;7.788;2023-12-07T02:59:07;80.90;;;46.03;;
11008;SDS011;5557;51.670;7.788;2023-12-07T03:01:34;80.80;;;46.20;;
11008;SDS011;5557;51.670;7.788;2023-12-07T03:04:01;83.23;;;47.80;;
11008;SDS011;5557;51.670;7.788;2023-12-07T03:06:29;82.53;;;45.47;;
11008;SDS011;5557;51.670;7.788;2023-12-07T03:08:56;79.10;;;44.57;;
11008;SDS011;5557;51.670;7.788;2023-12-07T03:11:23;76.23;;;42.60;;
11008;SDS011;5557;51.670;7.788;2023-12-07T03:13:51;76.17;;;43.70;;
11008;SDS011;5557;51.670;7.788;2023-12-07T03:16:18;73.63;;;43.10;;
11008;SDS011;5557;51.670;7.788;2023-12-07T03:18:45;84.93;;;44.87;;
11008;SDS011;5557;51.670;7.788;2023-12-07T03:21:12;88.63;;;44.50;;
11008;SDS011;5557;51.670;7.788;2023-12-07T03:23:39;86.33;;;45.77;;
11008;SDS011;5557;51.670;7.788;2023-12-07T03:26:06;78.13;;;44.33;;
11008;SDS011;5557;51.670;7.788;2023-12-07T03:28:33;76.53;;;42.37;;
11008;SDS011;5557;51.670;7.788;2023-12-07T03:31:00;76.23;;;42.90;;
11008;SDS011;5557;51.670;7.788;2023-12-07T03:35:57;81.50;;;44.30;;
11008;SDS011;5557;51.670;7.788;2023-12-07T03:38:24;79.87;;;47.83;;
11008;SDS011;5557;51.670;7.788;2023-12-07T03:40:51;78.20;;;43.80;;
11008;SDS011;5557;51.670;7.788;2023-12-07T03:43:19;75.43;;;43.37;;
11008;SDS011;5557;51.670;7.788;2023-12-07T03:45:47;73.53;;;42.43;;
11008;SDS011;5557;51.670;7.788;2023-12-07T03:48:14;72.40;;;44.40;;
11008;SDS011;5557;51.670;7.788;2023-12-07T03:50:41;75.07;;;44.53;;
11008;SDS011;5557;51.670;7.788;2023-12-07T03:53:09;77.20;;;44.90;;
11008;SDS011;5557;51.670;7.788;2023-12-07T03:55:36;75.07;;;44.20;;
11008;SDS011;5557;51.670;7.788;2023-12-07T03:58:05;77.07;;;44.73;;
11008;SDS011;5557;51.670;7.788;2023-12-07T04:00:33;69.37;;;42.90;;
11008;SDS011;5557;51.670;7.788;2023-12-07T04:03:00;81.33;;;45.43;;
11008;SDS011;5557;51.670;7.788;2023-12-07T04:05:27;71.90;;;42.60;;
11008;SDS011;5557;51.670;7.788;2023-12-07T04:07:54;71.57;;;41.83;;
11008;SDS011;5557;51.670;7.788;2023-12-07T04:10:21;69.10;;;42.30;;
11008;SDS011;5557;51.670;7.788;2023-12-07T04:12:48;69.43;;;42.00;;
11008;SDS011;5557;51.670;7.788;2023-12-07T04:15:16;71.73;;;42.03;;
11008;SDS011;5557;51.670;7.788;2023-12-07T04:17:45;67.57;;;42.10;;
11008;SDS011;5557;51.670;7.788;2023-12-07T04:20:12;72.97;;;43.17;;
11008;SDS011;5557;51.670;7.788;2023-12-07T04:22:39;64.80;;;40.23;;
11008;SDS011;5557;51.670;7.788;2023-12-07T04:25:07;65.13;;;39.47;;
11008;SDS011;5557;51.670;7.788;2023-12-07T04:27:36;74.30;;;41.57;;
11008;SDS011;5557;51.670;7.788;2023-12-07T04:30:03;64.70;;;39.87;;
11008;SDS011;5557;51.670;7.788;2023-12-07T04:32:34;71.00;;;41.43;;
11008;SDS011;5557;51.670;7.788;2023-12-07T04:35:02;63.03;;;40.50;;
11008;SDS011;5557;51.670;7.788;2023-12-07T04:37:29;63.30;;;41.10;;
11008;SDS011;5557;51.670;7.788;2023-12-07T04:39:57;72.90;;;42.20;;
11008;SDS011;5557;51.670;7.788;2023-12-07T04:42:25;68.93;;;40.30;;
11008;SDS011;5557;51.670;7.788;2023-12-07T04:44:53;73.70;;;42.00;;
11008;SDS011;5557;51.670;7.788;2023-12-07T04:47:21;80.33;;;44.17;;
11008;SDS011;5557;51.670;7.788;2023-12-07T04:49:49;71.73;;;42.50;;
11008;SDS011;5557;51.670;7.788;2023-12-07T04:52:19;73.43;;;42.60;;
11008;SDS011;5557;51.670;7.788;2023-12-07T04:54:46;79.00;;;45.83;;
11008;SDS011;5557;51.670;7.788;2023-12-07T04:57:14;79.27;;;44.30;;
11008;SDS011;5557;51.670;7.788;2023-12-07T04:59:42;89.57;;;47.10;;
11008;SDS011;5557;51.670;7.788;2023-12-07T05:02:13;83.00;;;45.10;;
11008;SDS011;5557;51.670;7.788;2023-12-07T05:04:41;85.23;;;46.50;;
11008;SDS011;5557;51.670;7.788;2023-12-07T05:07:09;86.20;;;47.17;;
11008;SDS011;5557;51.670;7.788;2023-12-07T05:09:36;103.80;;;49.97;;
11008;SDS011;5557;51.670;7.788;2023-12-07T05:12:05;89.67;;;47.70;;
11008;SDS011;5557;51.670;7.788;2023-12-07T05:14:32;95.63;;;48.47;;
11008;SDS011;5557;51.670;7.788;2023-12-07T05:17:01;105.27;;;50.20;;
11008;SDS011;5557;51.670;7.788;2023-12-07T05:19:29;87.47;;;46.80;;
11008;SDS011;5557;51.670;7.788;2023-12-07T05:21:56;90.97;;;47.17;;
11008;SDS011;5557;51.670;7.788;2023-12-07T05:24:23;88.30;;;47.97;;
11008;SDS011;5557;51.670;7.788;2023-12-07T05:26:50;97.60;;;47.97;;
11008;SDS011;5557;51.670;7.788;2023-12-07T05:29:18;88.83;;;47.03;;
11008;SDS011;5557;51.670;7.788;2023-12-07T05:31:47;89.93;;;48.33;;
11008;SDS011;5557;51.670;7.788;2023-12-07T05:34:17;84.37;;;45.20;;
11008;SDS011;5557;51.670;7.788;2023-12-07T05:36:48;91.13;;;46.23;;
11008;SDS011;5557;51.670;7.788;2023-12-07T05:39:15;85.27;;;46.60;;
11008;SDS011;5557;51.670;7.788;2023-12-07T05:41:45;88.90;;;45.97;;
11008;SDS011;5557;51.670;7.788;2023-12-07T05:44:14;91.30;;;45.50;;
11008;SDS011;5557;51.670;7.788;2023-12-07T05:46:48;80.87;;;44.10;;
11008;SDS011;5557;51.670;7.788;2023-12-07T05:49:15;76.40;;;43.60;;
11008;SDS011;5557;51.670;7.788;2023-12-07T05:51:45;87.83;;;47.40;;
11008;SDS011;5557;51.670;7.788;2023-12-07T05:54:12;79.23;;;43.47;;
11008;SDS011;5557;51.670;7.788;2023-12-07T05:56:40;83.00;;;45.30;;
11008;SDS011;5557;51.670;7.788;2023-12-07T05:59:07;79.40;;;44.20;;
11008;SDS011;5557;51.670;7.788;2023-12-07T06:01:37;80.07;;;42.87;;
11008;SDS011;5557;51.670;7.788;2023-12-07T06:04:08;66.03;;;38.67;;
11008;SDS011;5557;51.670;7.788;2023-12-07T06:06:38;69.37;;;40.70;;
11008;SDS011;5557;51.670;7.788;2023-12-07T06:09:06;72.67;;;41.87;;
11008;SDS011;5557;51.670;7.788;2023-12-07T06:11:36;81.70;;;41.57;;
11008;SDS011;5557;51.670;7.788;2023-12-07T06:14:03;118.63;;;41.67;;
11008;SDS011;5557;51.670;7.788;2023-12-07T06:16:33;114.03;;;38.57;;
11008;SDS011;5557;51.670;7.788;2023-12-07T06:19:00;101.67;;;36.93;;
11008;SDS011;5557;51.670;7.788;2023-12-07T06:21:30;73.23;;;36.37;;
11008;SDS011;5557;51.670;7.788;2023-12-07T06:24:01;132.17;;;39.23;;
11008;SDS011;5557;51.670;7.788;2023-12-07T06:26:28;86.30;;;37.80;;
11008;SDS011;5557;51.670;7.788;2023-12-07T06:28:56;103.83;;;39.30;;
11008;SDS011;5557;51.670;7.788;2023-12-07T06:31:24;78.77;;;37.63;;
11008;SDS011;5557;51.670;7.788;2023-12-07T06:33:52;79.30;;;38.80;;
11008;SDS011;5557;51.670;7.788;2023-12-07T06:36:20;97.63;;;38.17;;
11008;SDS011;5557;51.670;7.788;2023-12-07T06:38:48;86.90;;;40.67;;
11008;SDS011;5557;51.670;7.788;2023-12-07T06:41:15;106.97;;;38.70;;
11008;SDS011;5557;51.670;7.788;2023-12-07T06:43:42;140.23;;;40.00;;
11008;SDS011;5557;51.670;7.788;2023-12-07T06:46:11;98.73;;;37.43;;
11008;SDS011;5557;51.670;7.788;2023-12-07T06:48:41;80.60;;;37.13;;
11008;SDS011;5557;51.670;7.788;2023-12-07T06:51:10;84.87;;;38.47;;
11008;SDS011;5557;51.670;7.788;2023-12-07T06:53:41;101.33;;;39.47;;
11008;SDS011;5557;51.670;7.788;2023-12-07T06:56:08;144.07;;;42.70;;
11008;SDS011;5557;51.670;7.788;2023-12-07T06:58:35;118.37;;;45.20;;
11008;SDS011;5557;51.670;7.788;2023-12-07T07:01:03;93.03;;;42.00;;
11008;SDS011;5557;51.670;7.788;2023-12-07T07:03:30;77.60;;;41.63;;
11008;SDS011;5557;51.670;7.788;2023-12-07T07:05:57;76.53;;;39.60;;
11008;SDS011;5557;51.670;7.788;2023-12-07T07:08:26;67.10;;;38.53;;
11008;SDS011;5557;51.670;7.788;2023-12-07T07:10:53;66.37;;;39.77;;
11008;SDS011;5557;51.670;7.788;2023-12-07T07:13:20;72.57;;;40.77;;
11008;SDS011;5557;51.670;7.788;2023-12-07T07:15:47;72.13;;;41.73;;
11008;SDS011;5557;51.670;7.788;2023-12-07T07:18:14;63.93;;;37.90;;
11008;SDS011;5557;51.670;7.788;2023-12-07T07:20:41;72.87;;;36.40;;
11008;SDS011;5557;51.670;7.788;2023-12-07T07:23:08;69.57;;;40.20;;
11008;SDS011;5557;51.670;7.788;2023-12-07T07:25:37;60.10;;;35.23;;
11008;SDS011;5557;51.670;7.788;2023-12-07T07:28:05;56.77;;;35.90;;
11008;SDS011;5557;51.670;7.788;2023-12-07T07:30:32;46.60;;;31.23;;
11008;SDS011;5557;51.670;7.788;2023-12-07T07:33:00;53.07;;;32.90;;
11008;SDS011;5557;51.670;7.788;2023-12-07T07:35:28;52.90;;;35.93;;
11008;SDS011;5557;51.670;7.788;2023-12-07T07:37:55;56.03;;;34.37;;
11008;SDS011;5557;51.670;7.788;2023-12-07T07:40:22;59.03;;;34.70;;
11008;SDS011;5557;51.670;7.788;2023-12-07T07:42:51;48.80;;;33.80;;
11008;SDS011;5557;51.670;7.788;2023-12-07T07:45:18;54.37;;;36.50;;
11008;SDS011;5557;51.670;7.788;2023-12-07T07:47:45;49.47;;;33.57;;
11008;SDS011;5557;51.670;7.788;2023-12-07T07:50:12;64.23;;;42.10;;
11008;SDS011;5557;51.670;7.788;2023-12-07T07:52:39;54.70;;;38.53;;
11008;SDS011;5557;51.670;7.788;2023-12-07T07:55:07;62.90;;;35.43;;
11008;SDS011;5557;51.670;7.788;2023-12-07T07:57:35;56.37;;;36.33;;
11008;SDS011;5557;51.670;7.788;2023-12-07T08:00:02;50.87;;;34.97;;
11008;SDS011;5557;51.670;7.788;2023-12-07T08:02:31;49.10;;;35.07;;
11008;SDS011;5557;51.670;7.788;2023-12-07T08:04:58;52.77;;;36.17;;
11008;SDS011;5557;51.670;7.788;2023-12-07T08:07:25;80.53;;;53.43;;
11008;SDS011;5557;51.670;7.788;2023-12-07T08:09:53;56.80;;;37.33;;
11008;SDS011;5557;51.670;7.788;2023-12-07T08:12:20;53.90;;;37.87;;
11008;SDS011;5557;51.670;7.788;2023-12-07T08:14:50;49.47;;;34.30;;
11008;SDS011;5557;51.670;7.788;2023-12-07T08:17:17;47.13;;;34.77;;
11008;SDS011;5557;51.670;7.788;2023-12-07T08:19:46;47.97;;;33.80;;
11008;SDS011;5557;51.670;7.788;2023-12-07T08:22:14;44.50;;;31.00;;
11008;SDS011;5557;51.670;7.788;2023-12-07T08:24:42;44.57;;;31.37;;
11008;SDS011;5557;51.670;7.788;2023-12-07T08:27:10;39.03;;;28.97;;
11008;SDS011;5557;51.670;7.788;2023-12-07T08:29:37;37.93;;;28.97;;
11008;SDS011;5557;51.670;7.788;2023-12-07T08:32:04;40.77;;;31.10;;
11008;SDS011;5557;51.670;7.788;2023-12-07T08:34:35;50.40;;;32.67;;
11008;SDS011;5557;51.670;7.788;2023-12-07T08:37:04;38.20;;;29.20;;
11008;SDS011;5557;51.670;7.788;2023-12-07T08:39:31;39.47;;;29.83;;
11008;SDS011;5557;51.670;7.788;2023-12-07T08:41:58;42.20;;;29.03;;
11008;SDS011;5557;51.670;7.788;2023-12-07T08:44:25;40.53;;;28.17;;
11008;SDS011;5557;51.670;7.788;2023-12-07T08:46:52;36.10;;;26.47;;
11008;SDS011;5557;51.670;7.788;2023-12-07T08:49:19;35.67;;;26.57;;
11008;SDS011;5557;51.670;7.788;2023-12-07T08:51:46;34.80;;;26.83;;
11008;SDS011;5557;51.670;7.788;2023-12-07T08:54:33;35.57;;;26.00;;
11008;SDS011;5557;51.670;7.788;2023-12-07T08:57:00;36.93;;;26.80;;
11008;SDS011;5557;51.670;7.788;2023-12-07T08:59:27;42.73;;;26.80;;
11008;SDS011;5557;51.670;7.788;2023-12-07T09:01:54;38.30;;;26.33;;
11008;SDS011;5557;51.670;7.788;2023-12-07T09:04:21;36.00;;;24.20;;
11008;SDS011;5557;51.670;7.788;2023-12-07T09:06:48;35.70;;;24.37;;
11008;SDS011;5557;51.670;7.788;2023-12-07T09:09:15;40.20;;;25.17;;
11008;SDS011;5557;51.670;7.788;2023-12-07T09:11:43;37.00;;;23.90;;
11008;SDS011;5557;51.670;7.788;2023-12-07T09:14:10;39.37;;;22.13;;
11008;SDS011;5557;51.670;7.788;2023-12-07T09:16:44;36.40;;;22.90;;
11008;SDS011;5557;51.670;7.788;2023-12-07T09:19:12;33.97;;;22.30;;
11008;SDS011;5557;51.670;7.788;2023-12-07T09:21:40;34.00;;;21.43;;
11008;SDS011;5557;51.670;7.788;2023-12-07T09:24:08;31.93;;;21.83;;
11008;SDS011;5557;51.670;7.788;2023-12-07T09:26:35;30.43;;;21.00;;
11008;SDS011;5557;51.670;7.788;2023-12-07T09:29:03;30.30;;;19.60;;
11008;SDS011;5557;51.670;7.788;2023-12-07T09:31:30;31.93;;;21.63;;
11008;SDS011;5557;51.670;7.788;2023-12-07T09:34:04;29.90;;;20.70;;
11008;SDS011;5557;51.670;7.788;2023-12-07T09:36:38;32.37;;;21.00;;
11008;SDS011;5557;51.670;7.788;2023-12-07T09:39:05;46.43;;;21.27;;
11008;SDS011;5557;51.670;7.788;2023-12-07T09:41:32;35.03;;;21.30;;
11008;SDS011;5557;51.670;7.788;2023-12-07T09:44:00;25.30;;;18.77;;
11008;SDS011;5557;51.670;7.788;2023-12-07T09:46:27;32.80;;;22.40;;
11008;SDS011;5557;51.670;7.788;2023-12-07T09:48:56;28.20;;;21.40;;
11008;SDS011;5557;51.670;7.788;2023-12-07T09:51:24;29.70;;;22.03;;
11008;SDS011;5557;51.670;7.788;2023-12-07T09:53:54;25.03;;;19.80;;
11008;SDS011;5557;51.670;7.788;2023-12-07T09:56:21;33.10;;;22.57;;
11008;SDS011;5557;51.670;7.788;2023-12-07T09:58:48;25.60;;;19.73;;
11008;SDS011;5557;51.670;7.788;2023-12-07T10:01:15;30.13;;;19.57;;
11008;SDS011;5557;51.670;7.788;2023-12-07T10:03:42;27.40;;;20.33;;
11008;SDS011;5557;51.670;7.788;2023-12-07T10:06:10;23.83;;;20.77;;
11008;SDS011;5557;51.670;7.788;2023-12-07T10:08:37;23.67;;;20.90;;
11008;SDS011;5557;51.670;7.788;2023-12-07T10:11:05;26.50;;;20.17;;
11008;SDS011;5557;51.670;7.788;2023-12-07T10:13:38;21.07;;;18.83;;
11008;SDS011;5557;51.670;7.788;2023-12-07T10:16:12;30.30;;;20.07;;
11008;SDS011;5557;51.670;7.788;2023-12-07T10:18:41;23.43;;;21.03;;
11008;SDS011;5557;51.670;7.788;2023-12-07T10:21:11;24.90;;;20.47;;
11008;SDS011;5557;51.670;7.788;2023-12-07T10:23:38;28.07;;;19.60;;
11008;SDS011;5557;51.670;7.788;2023-12-07T10:26:07;31.87;;;23.27;;
11008;SDS011;5557;51.670;7.788;2023-12-07T10:28:35;23.07;;;20.17;;
11008;SDS011;5557;51.670;7.788;2023-12-07T10:31:05;22.60;;;19.33;;
11008;SDS011;5557;51.670;7.788;2023-12-07T10:33:36;25.17;;;20.00;;
11008;SDS011;5557;51.670;7.788;2023-12-07T10:36:04;21.77;;;19.10;;
11008;SDS011;5557;51.670;7.788;2023-12-07T10:38:33;27.00;;;20.37;;
11008;SDS011;5557;51.670;7.788;2023-12-07T10:41:06;21.97;;;17.70;;
11008;SDS011;5557;51.670;7.788;2023-12-07T10:43:42;22.13;;;19.40;;
11008;SDS011;5557;51.670;7.788;2023-12-07T10:46:13;20.17;;;18.00;;
11008;SDS011;5557;51.670;7.788;2023-12-07T10:48:45;21.03;;;18.83;;
11008;SDS011;5557;51.670;7.788;2023-12-07T10:54:14;19.90;;;17.90;;
11008;SDS011;5557;51.670;7.788;2023-12-07T10:56:44;24.00;;;18.97;;
11008;SDS011;5557;51.670;7.788;2023-12-07T10:59:13;19.47;;;17.43;;
11008;SDS011;5557;51.670;7.788;2023-12-07T11:01:56;22.37;;;18.77;;
11008;SDS011;5557;51.670;7.788;2023-12-07T11:04:24;20.47;;;17.93;;
11008;SDS011;5557;51.670;7.788;2023-12-07T11:06:54;26.03;;;17.67;;
11008;SDS011;5557;51.670;7.788;2023-12-07T11:09:28;19.63;;;17.63;;
11008;SDS011;5557;51.670;7.788;2023-12-07T11:12:07;18.77;;;16.93;;
11008;SDS011;5557;51.670;7.788;2023-12-07T11:14:38;19.00;;;17.10;;
11008;SDS011;5557;51.670;7.788;2023-12-07T11:17:05;26.23;;;18.33;;
11008;SDS011;5557;51.670;7.788;2023-12-07T11:22:20;20.40;;;17.87;;
11008;SDS011;5557;51.670;7.788;2023-12-07T11:25:00;20.23;;;18.20;;
11008;SDS011;5557;51.670;7.788;2023-12-07T11:27:31;20.60;;;17.57;;
11008;SDS011;5557;51.670;7.788;2023-12-07T11:29:59;17.87;;;16.10;;
11008;SDS011;5557;51.670;7.788;2023-12-07T11:32:27;19.93;;;17.57;;
11008;SDS011;5557;51.670;7.788;2023-12-07T11:35:01;17.47;;;15.67;;
11008;SDS011;5557;51.670;7.788;2023-12-07T11:40:45;15.10;;;13.70;;
11008;SDS011;5557;51.670;7.788;2023-12-07T11:45:59;16.60;;;15.00;;
11008;SDS011;5557;51.670;7.788;2023-12-07T11:48:26;16.73;;;15.13;;
11008;SDS011;5557;51.670;7.788;2023-12-07T11:51:04;14.73;;;13.30;;
11008;SDS011;5557;51.670;7.788;2023-12-07T11:53:34;15.77;;;14.27;;
11008;SDS011;5557;51.670;7.788;2023-12-07T11:56:03;14.50;;;13.27;;
11008;SDS011;5557;51.670;7.788;2023-12-07T11:58:35;14.07;;;12.60;;
11008;SDS011;5557;51.670;7.788;2023-12-07T12:01:06;13.60;;;12.43;;
11008;SDS011;5557;51.670;7.788;2023-12-07T12:03:35;14.23;;;13.00;;
11008;SDS011;5557;51.670;7.788;2023-12-07T12:06:03;15.47;;;13.67;;
11008;SDS011;5557;51.670;7.788;2023-12-07T12:08:32;13.90;;;12.60;;
11008;SDS011;5557;51.670;7.788;2023-12-07T12:10:59;15.33;;;13.77;;
11008;SDS011;5557;51.670;7.788;2023-12-07T12:13:27;15.20;;;13.60;;
11008;SDS011;5557;51.670;7.788;2023-12-07T12:15:56;14.17;;;12.87;;
11008;SDS011;5557;51.670;7.788;2023-12-07T12:18:29;14.27;;;12.77;;
11008;SDS011;5557;51.670;7.788;2023-12-07T12:20:57;14.83;;;13.33;;
11008;SDS011;5557;51.670;7.788;2023-12-07T12:23:25;17.47;;;13.00;;
11008;SDS011;5557;51.670;7.788;2023-12-07T12:25:53;13.83;;;12.43;;
11008;SDS011;5557;51.670;7.788;2023-12-07T12:28:20;13.90;;;12.57;;
11008;SDS011;5557;51.670;7.788;2023-12-07T12:30:50;13.90;;;12.47;;
11008;SDS011;5557;51.670;7.788;2023-12-07T12:33:24;12.27;;;11.17;;
11008;SDS011;5557;51.670;7.788;2023-12-07T12:36:07;13.00;;;11.83;;
11008;SDS011;5557;51.670;7.788;2023-12-07T12:38:37;12.40;;;11.33;;
11008;SDS011;5557;51.670;7.788;2023-12-07T12:41:09;12.50;;;11.40;;
11008;SDS011;5557;51.670;7.788;2023-12-07T12:43:37;11.00;;;10.10;;
11008;SDS011;5557;51.670;7.788;2023-12-07T12:46:04;11.67;;;10.17;;
11008;SDS011;5557;51.670;7.788;2023-12-07T12:48:33;10.80;;;9.83;;
11008;SDS011;5557;51.670;7.788;2023-12-07T12:51:13;10.83;;;9.93;;
11008;SDS011;5557;51.670;7.788;2023-12-07T12:53:41;11.30;;;10.20;;
11008;SDS011;5557;51.670;7.788;2023-12-07T12:56:17;11.23;;;9.40;;
11008;SDS011;5557;51.670;7.788;2023-12-07T12:58:50;11.07;;;9.90;;
11008;SDS011;5557;51.670;7.788;2023-12-07T13:01:18;11.43;;;10.40;;
11008;SDS011;5557;51.670;7.788;2023-12-07T13:03:47;10.83;;;9.63;;
11008;SDS011;5557;51.670;7.788;2023-12-07T13:06:19;10.60;;;9.63;;
11008;SDS011;5557;51.670;7.788;2023-12-07T13:08:47;9.97;;;9.00;;
11008;SDS011;5557;51.670;7.788;2023-12-07T13:11:17;10.00;;;9.20;;
11008;SDS011;5557;51.670;7.788;2023-12-07T13:13:46;11.00;;;10.27;;
11008;SDS011;5557;51.670;7.788;2023-12-07T13:16:16;10.17;;;9.10;;
11008;SDS011;5557;51.670;7.788;2023-12-07T13:18:43;9.60;;;8.80;;
11008;SDS011;5557;51.670;7.788;2023-12-07T13:21:10;9.13;;;8.43;;
11008;SDS011;5557;51.670;7.788;2023-12-07T13:23:38;10.87;;;10.03;;
11008;SDS011;5557;51.670;7.788;2023-12-07T13:26:05;9.50;;;8.80;;
11008;SDS011;5557;51.670;7.788;2023-12-07T13:28:33;8.90;;;8.30;;
11008;SDS011;5557;51.670;7.788;2023-12-07T13:31:00;9.80;;;8.90;;
11008;SDS011;5557;51.670;7.788;2023-12-07T13:33:30;10.57;;;8.77;;
11008;SDS011;5557;51.670;7.788;2023-12-07T13:36:15;10.53;;;9.47;;
11008;SDS011;5557;51.670;7.788;2023-12-07T13:38:44;9.30;;;8.47;;
11008;SDS011;5557;51.670;7.788;2023-12-07T13:41:13;10.70;;;9.67;;
11008;SDS011;5557;51.670;7.788;2023-12-07T13:43:43;10.00;;;9.40;;
11008;SDS011;5557;51.670;7.788;2023-12-07T13:46:10;10.87;;;9.87;;
11008;SDS011;5557;51.670;7.788;2023-12-07T13:48:38;10.87;;;9.97;;
11008;SDS011;5557;51.670;7.788;2023-12-07T13:51:06;9.00;;;8.30;;
11008;SDS011;5557;51.670;7.788;2023-12-07T13:53:33;10.80;;;8.40;;
11008;SDS011;5557;51.670;7.788;2023-12-07T13:56:00;8.60;;;8.00;;
11008;SDS011;5557;51.670;7.788;2023-12-07T13:58:30;10.37;;;9.10;;
11008;SDS011;5557;51.670;7.788;2023-12-07T14:00:58;10.03;;;9.13;;
11008;SDS011;5557;51.670;7.788;2023-12-07T14:03:25;9.53;;;8.87;;
11008;SDS011;5557;51.670;7.788;2023-12-07T14:05:52;11.10;;;9.80;;
11008;SDS011;5557;51.670;7.788;2023-12-07T14:08:20;10.70;;;9.67;;
11008;SDS011;5557;51.670;7.788;2023-12-07T14:10:47;10.03;;;9.17;;
11008;SDS011;5557;51.670;7.788;2023-12-07T14:13:14;11.63;;;10.53;;
11008;SDS011;5557;51.670;7.788;2023-12-07T14:15:44;12.37;;;10.00;;
11008;SDS011;5557;51.670;7.788;2023-12-07T14:18:13;10.97;;;10.07;;
11008;SDS011;5557;51.670;7.788;2023-12-07T14:21:01;11.60;;;10.60;;
11008;SDS011;5557;51.670;7.788;2023-12-07T14:23:49;12.20;;;10.90;;
11008;SDS011;5557;51.670;7.788;2023-12-07T14:26:21;11.70;;;10.60;;
11008;SDS011;5557;51.670;7.788;2023-12-07T14:28:49;10.70;;;9.70;;
11008;SDS011;5557;51.670;7.788;2023-12-07T14:31:20;10.77;;;10.03;;
11008;SDS011;5557;51.670;7.788;2023-12-07T14:33:51;12.47;;;11.30;;
11008;SDS011;5557;51.670;7.788;2023-12-07T14:36:18;15.90;;;11.57;;
11008;SDS011;5557;51.670;7.788;2023-12-07T14:38:46;11.60;;;10.40;;
11008;SDS011;5557;51.670;7.788;2023-12-07T14:41:15;15.77;;;11.10;;
11008;SDS011;5557;51.670;7.788;2023-12-07T14:43:44;11.63;;;10.77;;
11008;SDS011;5557;51.670;7.788;2023-12-07T14:46:11;11.77;;;10.90;;
11008;SDS011;5557;51.670;7.788;2023-12-07T14:48:38;13.20;;;11.93;;
11008;SDS011;5557;51.670;7.788;2023-12-07T14:51:06;12.20;;;11.10;;
11008;SDS011;5557;51.670;7.788;2023-12-07T14:53:33;12.90;;;11.40;;
11008;SDS011;5557;51.670;7.788;2023-12-07T14:56:00;13.20;;;11.90;;
11008;SDS011;5557;51.670;7.788;2023-12-07T14:58:27;11.83;;;10.83;;